LGKLLGKR

Guest
Details From LGKL - KALAMATA
To LGKR - IOANNIS KAPODISTRIAS INTL
Flight Number -
Tags generated
Created
Modified
Stats Distance 183 nm / 339 km
Max Altitude 24,400 ft / 7,437 m
Waypoints 4
Social Downloads 1
Likes 0
Share VATSIM

Download

Looking for another format? Having issues loading an existing format? Contact us
Advertisement - Login to hide

Notes

Basic altitude profile: - Ascent Rate: 2500ft/min - Ascent Speed: 250kts - Cruise Altitude: 35000ft - Cruise Speed: 420kts - Descent Rate: 1500ft/min - Descent Speed: 250kts Options: - Use NATs: yes - Use PACOTS: yes - Use low airways: yes - Use high airways: yes

Route

LGKL ARA A14 KRK LGKR

ID Type Via Altitude Latitude Longitude Leg Dist Tot Dist Heading (true) Name
O LGKL APT - 0 ft / 0 m 37.06832˚ 22.02552˚ - 0 nm - KALAMATA
ARA VOR - 24,400 ft / 7,437 m 38.10972˚ 21.42528˚ 68 nm 68 nm 336° / 335° ARAXOS VOR-DME
KRK VOR A14 (AWY-LO) 6,500 ft / 1,981 m 39.44389˚ 20.07278˚ 102 nm 170 nm 322° / 321° KERKIRA VOR-DME
O LGKR APT - 0 ft / 0 m 39.60178˚ 19.91191˚ 12 nm 182 nm 322° / 322° IOANNIS KAPODISTRIAS INTL

Altitude Profile

Advertisement - Login to hide

Weather


0- 5 10 15 20 25 30 35+ Temperature / ° C

Clouds and Precipitation
Forecast for 2017-12-14 00:00 UTC. Updated 2 hours ago

Ground ~20,000 ft ~40,000 ft Winds

LGKL

Details ICAO LGKL (KLX)
Name KALAMATA
Region Greece
Timezone Europe/Athens (UTC+2.0)
Stats Elevation 26 ft / 8 m (AMSL)
Location 37.068320° 22.025523°
Runways 1
Magnetic Variation 4.162° E

METAR

LGKL 132350Z 00000KT 9999 FEW025 SCT080 08/06 Q1021

Decode

TAF

Not found

Departure Runways

ID Width Length Bearing (true) Bearing (mag) Surface Threshold Offset Overrun Length
17R 148 ft / 45 m 9,274 ft / 2,827 m 169.51° 165.35° Asphalt 240 ft / 73 m 320 ft / 98 m
35L 148 ft / 45 m 9,274 ft / 2,827 m 349.51° 345.35° Asphalt 250 ft / 76 m 310 ft / 94 m

LGKR

Details ICAO LGKR (CFU)
Name IOANNIS KAPODISTRIAS INTL
Region Greece
Timezone Europe/Athens (UTC+2.0)
Stats Elevation 6 ft / 2 m (AMSL)
Location 39.601779° 19.911908°
Runways 1
Magnetic Variation 4.098° E

METAR

LGKR 140020Z 25003KT 9999 SCT008 SCT014 BKN025 16/11 Q1017 NOSIG

Decode

TAF

TAF LGKR 132300Z 1400/1424 17012KT 9999 SCT014 SCT025 PROB40 TEMPO 1400/1406 5000 RA SCT008 BKN025 BKN080 PROB30 TEMPO 1400/1403 3000 TSRA SCT006 FEW018CB BKN020 BKN080 BECMG 1400/1402 31010KT TEMPO 1412/1418 VRB05KT

Decode

Destination Runways

ID Width Length Bearing (true) Bearing (mag) Surface Threshold Offset Overrun Length
17 148 ft / 45 m 7,815 ft / 2,382 m 168.81° 164.71° Asphalt 1,348 ft / 411 m 0 ft / 0 m
35 148 ft / 45 m 7,815 ft / 2,382 m 348.81° 344.71° Asphalt 213 ft / 65 m 0 ft / 0 m